Terminal Aerodrome Forecast
Issued by NWS

Home | Current Version | Previous Version | Text Only | Print | Product List | Glossary On
Versions: 1 2 3 4 5 6 7 8 9 10 11 12 13 14 15 16 17 18 19 20
000
FTUS41 KOKX 202300
TAFHPN
TAF
KHPN 202338Z 2100/2124 VRB02KT P6SM FEW050 SCT150 BKN200
     FM210600 VRB03KT P6SM BKN040 BKN120
     FM211500 14004KT P6SM -RA BKN040 OVC100
      AMD NOT SKED=

USA.gov is the U.S. government's official web portal to all federal, state and local government web resources and services.